Time;durP1;ratioP1;P1;durP2;ratioP2;P2;SDS_P1;SDS_P2;PMS_P1;PMS_P2;Temp;Humidity;BMP_temperature;BMP_pressure;BME280_temperature;BME280_humidity;BME280_pressure;Samples;Min_cycle;Max_cycle;Signal;HPM_P1;HPM_P2
2022/03/03 00:00:41;;;;;;;23.00;16.83;;;;;;;;;;4962494;28;20229;-72
2022/03/03 00:03:09;;;;;;;26.57;18.37;;;;;;;;;;4964730;28;20297;-71
2022/03/03 00:05:37;;;;;;;22.93;17.67;;;;;;;;;;4937644;28;20232;-72
2022/03/03 00:08:03;;;;;;;24.17;17.13;;;;;;;;;;4953312;28;20231;-72
2022/03/03 00:10:29;;;;;;;22.83;18.00;;;;;;;;;;4886189;28;1064044;-72
2022/03/03 00:12:54;;;;;;;25.60;18.03;;;;;;;;;;4949915;28;20238;-72
2022/03/03 00:15:22;;;;;;;25.33;17.87;;;;;;;;;;4944706;28;20222;-71
2022/03/03 00:17:50;;;;;;;27.07;18.30;;;;;;;;;;4945212;28;20950;-72
2022/03/03 00:20:17;;;;;;;23.63;18.37;;;;;;;;;;4933671;28;20226;-72
2022/03/03 00:22:44;;;;;;;27.20;18.97;;;;;;;;;;4934319;28;20218;-73
2022/03/03 00:25:10;;;;;;;26.97;19.07;;;;;;;;;;4954697;28;20210;-72
2022/03/03 00:27:36;;;;;;;26.67;19.57;;;;;;;;;;4975716;28;20607;-71
2022/03/03 00:30:03;;;;;;;30.30;19.67;;;;;;;;;;4958008;28;20226;-72
2022/03/03 00:32:37;;;;;;;28.93;20.60;;;;;;;;;;4958695;28;20206;-72
2022/03/03 00:35:03;;;;;;;29.43;20.03;;;;;;;;;;4973525;28;20245;-72
2022/03/03 00:37:29;;;;;;;29.63;20.53;;;;;;;;;;4955391;28;20242;-72
2022/03/03 00:39:56;;;;;;;29.93;20.77;;;;;;;;;;4942096;28;20222;-73
2022/03/03 00:42:29;;;;;;;28.23;20.20;;;;;;;;;;4957137;28;20233;-72
2022/03/03 00:44:55;;;;;;;28.50;19.73;;;;;;;;;;4940806;28;20289;-72
2022/03/03 00:47:20;;;;;;;30.47;20.83;;;;;;;;;;4934045;28;20221;-73
2022/03/03 00:49:48;;;;;;;35.90;22.70;;;;;;;;;;4952820;28;20221;-72
2022/03/03 00:52:14;;;;;;;34.50;23.07;;;;;;;;;;4942896;28;20225;-72
2022/03/03 00:54:39;;;;;;;38.23;23.43;;;;;;;;;;4966581;28;20226;-72
2022/03/03 00:57:05;;;;;;;35.97;23.07;;;;;;;;;;4956148;28;20314;-73
2022/03/03 00:59:35;;;;;;;34.63;23.07;;;;;;;;;;4958379;28;20238;-73
2022/03/03 01:02:03;;;;;;;34.30;23.23;;;;;;;;;;4942065;28;20225;-71
2022/03/03 01:04:28;;;;;;;34.30;23.10;;;;;;;;;;4941985;28;20218;-71
2022/03/03 01:06:56;;;;;;;31.87;22.03;;;;;;;;;;4950451;28;20602;-71
2022/03/03 01:09:22;;;;;;;32.03;22.40;;;;;;;;;;4936280;28;20242;-71
2022/03/03 01:11:50;;;;;;;31.10;21.03;;;;;;;;;;4947814;28;20230;-73
2022/03/03 01:14:21;;;;;;;38.10;24.97;;;;;;;;;;4957583;28;20610;-72
2022/03/03 01:16:51;;;;;;;34.20;23.30;;;;;;;;;;4941543;28;20239;-73
2022/03/03 01:19:17;;;;;;;37.77;23.43;;;;;;;;;;4956769;28;20230;-73
2022/03/03 01:21:48;;;;;;;37.27;22.60;;;;;;;;;;4947625;28;20222;-71
2022/03/03 01:24:13;;;;;;;38.27;23.73;;;;;;;;;;4956156;28;20218;-70
2022/03/03 01:26:39;;;;;;;38.33;23.90;;;;;;;;;;4973989;28;20222;-74
2022/03/03 01:29:04;;;;;;;35.23;23.37;;;;;;;;;;4957413;28;20226;-75
2022/03/03 01:31:32;;;;;;;38.20;23.90;;;;;;;;;;4983464;28;20222;-71
2022/03/03 01:34:00;;;;;;;39.83;25.50;;;;;;;;;;4932484;28;20249;-71
2022/03/03 01:36:28;;;;;;;39.00;25.30;;;;;;;;;;4949029;28;20302;-73
2022/03/03 01:38:58;;;;;;;40.30;24.90;;;;;;;;;;4957845;28;20705;-71
2022/03/03 01:41:26;;;;;;;42.90;25.90;;;;;;;;;;4971291;28;20225;-72
2022/03/03 01:43:57;;;;;;;37.70;25.23;;;;;;;;;;4973177;28;20246;-72
2022/03/03 01:46:22;;;;;;;41.93;24.87;;;;;;;;;;4915788;28;20225;-72
2022/03/03 01:48:48;;;;;;;41.57;25.37;;;;;;;;;;4938946;28;20741;-73
2022/03/03 01:51:13;;;;;;;40.43;25.70;;;;;;;;;;4939922;28;20265;-71
2022/03/03 01:53:39;;;;;;;37.93;24.57;;;;;;;;;;4939933;28;20234;-71
2022/03/03 01:56:07;;;;;;;40.57;26.00;;;;;;;;;;4939420;28;20230;-71
2022/03/03 01:58:32;;;;;;;43.17;26.77;;;;;;;;;;4912950;28;20226;-72
2022/03/03 02:00:58;;;;;;;39.13;26.67;;;;;;;;;;4951606;28;20728;-72
2022/03/03 02:03:25;;;;;;;39.93;26.50;;;;;;;;;;4922767;28;20227;-72
2022/03/03 02:05:54;;;;;;;39.90;24.83;;;;;;;;;;4956836;28;20704;-72
2022/03/03 02:08:19;;;;;;;38.23;26.17;;;;;;;;;;4936342;28;20230;-72
2022/03/03 02:10:45;;;;;;;42.03;25.87;;;;;;;;;;4946441;28;20222;-72
2022/03/03 02:13:13;;;;;;;38.47;26.60;;;;;;;;;;4948942;28;20258;-72
2022/03/03 02:15:50;;;;;;;39.73;25.80;;;;;;;;;;4925842;28;20218;-72
2022/03/03 02:18:18;;;;;;;38.77;25.23;;;;;;;;;;4927554;28;20222;-70
2022/03/03 02:20:49;;;;;;;40.83;25.37;;;;;;;;;;4944740;28;20219;-71
2022/03/03 02:23:19;;;;;;;42.10;26.27;;;;;;;;;;4937751;28;20222;-72
2022/03/03 02:25:47;;;;;;;43.83;27.57;;;;;;;;;;4939862;28;20288;-72
2022/03/03 02:28:17;;;;;;;49.47;29.50;;;;;;;;;;4944636;28;20342;-72
2022/03/03 02:30:42;;;;;;;50.23;30.07;;;;;;;;;;4941181;28;20233;-72
2022/03/03 02:33:08;;;;;;;44.03;27.30;;;;;;;;;;4938957;28;20227;-73
2022/03/03 02:35:33;;;;;;;49.20;28.43;;;;;;;;;;4939991;28;20778;-72
2022/03/03 02:38:01;;;;;;;48.43;28.60;;;;;;;;;;4974687;28;20289;-72
2022/03/03 02:40:27;;;;;;;52.20;30.73;;;;;;;;;;4955204;28;20230;-72
2022/03/03 02:42:55;;;;;;;51.30;30.33;;;;;;;;;;4948482;28;20222;-74
2022/03/03 02:45:24;;;;;;;53.57;30.37;;;;;;;;;;4947362;28;20232;-74
2022/03/03 02:47:51;;;;;;;54.63;30.77;;;;;;;;;;4951903;28;20248;-71
2022/03/03 02:50:18;;;;;;;54.63;31.30;;;;;;;;;;4933612;28;20716;-72
2022/03/03 02:52:44;;;;;;;57.33;32.47;;;;;;;;;;4965232;28;20244;-72
2022/03/03 02:55:12;;;;;;;54.77;33.07;;;;;;;;;;4940609;28;20313;-72
2022/03/03 02:57:56;;;;;;;50.07;30.17;;;;;;;;;;4968585;28;20693;-72
2022/03/03 03:00:25;;;;;;;53.53;31.47;;;;;;;;;;4943427;28;20238;-72
2022/03/03 03:02:55;;;;;;;51.20;29.73;;;;;;;;;;4940162;28;20685;-72
2022/03/03 03:05:20;;;;;;;44.00;28.67;;;;;;;;;;4930389;28;20253;-72
2022/03/03 03:07:46;;;;;;;54.13;29.63;;;;;;;;;;4960312;28;20265;-71
2022/03/03 03:10:15;;;;;;;41.10;26.90;;;;;;;;;;4939449;28;20220;-72
2022/03/03 03:12:41;;;;;;;41.03;26.70;;;;;;;;;;4931925;28;20312;-71
2022/03/03 03:15:10;;;;;;;37.77;25.17;;;;;;;;;;4953016;28;20225;-71
2022/03/03 03:17:38;;;;;;;40.83;26.07;;;;;;;;;;4952346;28;20800;-71
2022/03/03 03:20:09;;;;;;;41.90;26.23;;;;;;;;;;4933274;28;20309;-72
2022/03/03 03:22:35;;;;;;;40.87;25.13;;;;;;;;;;4935001;28;20309;-73
2022/03/03 03:25:04;;;;;;;47.33;26.53;;;;;;;;;;4939309;28;20230;-73
2022/03/03 03:27:32;;;;;;;49.37;27.57;;;;;;;;;;4939283;28;20296;-72
2022/03/03 03:29:57;;;;;;;41.07;24.57;;;;;;;;;;4956671;28;20690;-72
2022/03/03 03:32:27;;;;;;;43.47;26.00;;;;;;;;;;4956863;28;20300;-71
2022/03/03 03:34:55;;;;;;;39.30;25.57;;;;;;;;;;4939081;28;20906;-72
2022/03/03 03:37:23;;;;;;;41.87;26.43;;;;;;;;;;4952748;28;20218;-72
2022/03/03 03:39:49;;;;;;;40.13;25.57;;;;;;;;;;4939829;28;20748;-72
2022/03/03 03:42:14;;;;;;;38.43;25.60;;;;;;;;;;4967782;28;20257;-71
2022/03/03 03:44:40;;;;;;;43.30;26.33;;;;;;;;;;4938842;28;20233;-73
2022/03/03 03:47:06;;;;;;;47.10;27.23;;;;;;;;;;4961680;28;20222;-72
2022/03/03 03:49:32;;;;;;;41.93;26.73;;;;;;;;;;4920636;28;20313;-71
2022/03/03 03:51:57;;;;;;;45.10;26.50;;;;;;;;;;4938449;28;20221;-70
2022/03/03 03:54:23;;;;;;;47.07;27.43;;;;;;;;;;4937985;28;20707;-71
2022/03/03 03:56:53;;;;;;;43.77;28.40;;;;;;;;;;4967469;28;20309;-71
2022/03/03 03:59:18;;;;;;;49.00;28.33;;;;;;;;;;4937793;28;20705;-72
2022/03/03 04:01:46;;;;;;;46.07;27.90;;;;;;;;;;4950963;28;20248;-72
2022/03/03 04:04:12;;;;;;;50.03;30.03;;;;;;;;;;4921550;28;20223;-72
2022/03/03 04:06:40;;;;;;;47.77;27.57;;;;;;;;;;4938209;28;20264;-72
2022/03/03 04:09:06;;;;;;;47.50;29.40;;;;;;;;;;4946635;28;20215;-72
2022/03/03 04:11:31;;;;;;;52.73;30.67;;;;;;;;;;4922340;28;20265;-72
2022/03/03 04:13:57;;;;;;;59.37;31.87;;;;;;;;;;4945418;28;20226;-71
2022/03/03 04:16:26;;;;;;;51.27;30.23;;;;;;;;;;4971603;28;20233;-72
2022/03/03 04:18:52;;;;;;;53.47;30.20;;;;;;;;;;4968482;28;20253;-73
2022/03/03 04:21:22;;;;;;;54.43;31.33;;;;;;;;;;4937583;28;20218;-71
2022/03/03 04:23:47;;;;;;;60.43;34.33;;;;;;;;;;4956238;28;20222;-72
2022/03/03 04:26:17;;;;;;;59.83;33.17;;;;;;;;;;4945791;28;20210;-73
2022/03/03 04:28:47;;;;;;;56.60;30.73;;;;;;;;;;4968539;28;20214;-72
2022/03/03 04:31:16;;;;;;;59.90;32.77;;;;;;;;;;4921414;28;20316;-71
2022/03/03 04:33:46;;;;;;;60.00;34.17;;;;;;;;;;4939515;28;20218;-72
2022/03/03 04:36:14;;;;;;;63.93;33.00;;;;;;;;;;4953689;28;20717;-72
2022/03/03 04:38:39;;;;;;;57.83;33.37;;;;;;;;;;4971089;28;20245;-73
2022/03/03 04:41:08;;;;;;;62.03;32.70;;;;;;;;;;4953795;28;20226;-73
2022/03/03 04:43:33;;;;;;;63.87;34.53;;;;;;;;;;4975989;28;20368;-72
2022/03/03 04:46:01;;;;;;;60.33;33.27;;;;;;;;;;4934872;28;20274;-72
2022/03/03 04:48:29;;;;;;;56.20;31.50;;;;;;;;;;4954020;28;20352;-73
2022/03/03 04:51:01;;;;;;;65.63;33.17;;;;;;;;;;4927438;28;20226;-71
2022/03/03 04:53:29;;;;;;;58.33;31.87;;;;;;;;;;4955253;28;20607;-70
2022/03/03 04:55:57;;;;;;;63.63;34.73;;;;;;;;;;4922967;28;20230;-71
2022/03/03 04:58:23;;;;;;;63.23;35.23;;;;;;;;;;4952109;28;20226;-72
2022/03/03 05:00:51;;;;;;;61.27;35.43;;;;;;;;;;4963955;28;20615;-71
2022/03/03 05:03:16;;;;;;;75.83;39.57;;;;;;;;;;4949407;28;20229;-71
2022/03/03 05:05:42;;;;;;;74.07;37.67;;;;;;;;;;4937292;28;20692;-72
2022/03/03 05:08:07;;;;;;;68.50;38.33;;;;;;;;;;4935463;28;20214;-72
2022/03/03 05:10:36;;;;;;;74.30;38.03;;;;;;;;;;4914438;28;20222;-73
2022/03/03 05:13:01;;;;;;;68.43;37.60;;;;;;;;;;4977115;28;20226;-72
2022/03/03 05:15:28;;;;;;;67.37;37.43;;;;;;;;;;4957505;28;20218;-72
2022/03/03 05:17:58;;;;;;;70.60;37.77;;;;;;;;;;4942566;28;20218;-73
2022/03/03 05:20:24;;;;;;;72.20;37.90;;;;;;;;;;4922066;28;20239;-72
2022/03/03 05:22:49;;;;;;;76.57;38.87;;;;;;;;;;4939680;28;20232;-71
2022/03/03 05:25:15;;;;;;;66.23;36.70;;;;;;;;;;4924777;28;20369;-72
2022/03/03 05:27:43;;;;;;;69.00;38.43;;;;;;;;;;4937662;28;20607;-72
2022/03/03 05:30:09;;;;;;;73.77;38.00;;;;;;;;;;4952888;28;20305;-73
2022/03/03 05:32:36;;;;;;;66.37;38.13;;;;;;;;;;4963699;28;20218;-72
2022/03/03 05:35:06;;;;;;;66.57;37.37;;;;;;;;;;4940724;28;20227;-72
2022/03/03 05:37:34;;;;;;;67.17;37.83;;;;;;;;;;4954465;28;20222;-73
2022/03/03 05:40:00;;;;;;;70.37;39.20;;;;;;;;;;4975013;28;20252;-72
2022/03/03 05:42:25;;;;;;;78.47;40.80;;;;;;;;;;4939886;29;20282;-71
2022/03/03 05:44:53;;;;;;;75.97;41.40;;;;;;;;;;4972309;28;20242;-72
2022/03/03 05:47:21;;;;;;;76.50;39.53;;;;;;;;;;4982427;28;20345;-71
2022/03/03 05:49:52;;;;;;;78.93;41.07;;;;;;;;;;4959377;28;20218;-72
2022/03/03 05:52:19;;;;;;;79.90;41.17;;;;;;;;;;4969268;28;20214;-71
2022/03/03 05:54:47;;;;;;;96.90;44.60;;;;;;;;;;4945467;28;20243;-72
2022/03/03 05:57:21;;;;;;;89.03;42.93;;;;;;;;;;4970829;28;20281;-72
2022/03/03 05:59:48;;;;;;;85.80;42.83;;;;;;;;;;4935639;28;20670;-70
2022/03/03 06:02:18;;;;;;;95.20;44.70;;;;;;;;;;4937895;28;20607;-72
2022/03/03 06:04:52;;;;;;;89.53;41.83;;;;;;;;;;4936406;28;20222;-73
2022/03/03 06:07:24;;;;;;;80.20;41.07;;;;;;;;;;4973914;28;20218;-71
2022/03/03 06:09:53;;;;;;;90.17;43.40;;;;;;;;;;4943071;28;20234;-70
2022/03/03 06:12:45;;;;;;;85.13;40.27;;;;;;;;;;4948004;28;20297;-71
2022/03/03 06:15:14;;;;;;;70.50;37.80;;;;;;;;;;4953472;28;20225;-72
2022/03/03 06:17:42;;;;;;;80.43;40.13;;;;;;;;;;4947947;28;20281;-73
2022/03/03 06:20:11;;;;;;;83.47;40.33;;;;;;;;;;4931524;28;20333;-72
2022/03/03 06:22:36;;;;;;;75.03;39.90;;;;;;;;;;4951438;28;20249;-72
2022/03/03 06:25:03;;;;;;;70.57;38.83;;;;;;;;;;4979379;28;20223;-74
2022/03/03 06:27:29;;;;;;;79.43;38.77;;;;;;;;;;4940085;28;20308;-75
2022/03/03 06:29:56;;;;;;;80.47;38.90;;;;;;;;;;4972829;28;20229;-74
2022/03/03 06:32:22;;;;;;;124.83;41.03;;;;;;;;;;4916234;28;20229;-71
2022/03/03 06:34:50;;;;;;;80.03;38.77;;;;;;;;;;4952933;28;20600;-72
2022/03/03 06:37:20;;;;;;;69.93;37.83;;;;;;;;;;4954276;28;20225;-71
2022/03/03 06:39:57;;;;;;;92.50;39.67;;;;;;;;;;4947430;28;20234;-73
2022/03/03 06:42:26;;;;;;;73.90;39.10;;;;;;;;;;4931517;28;20239;-73
2022/03/03 06:44:53;;;;;;;75.13;38.17;;;;;;;;;;4955985;28;20586;-78
2022/03/03 06:47:20;;;;;;;100.57;39.90;;;;;;;;;;4948517;28;20218;-76
2022/03/03 06:49:49;;;;;;;84.80;40.50;;;;;;;;;;4940041;28;20222;-75
2022/03/03 06:52:15;;;;;;;314.77;52.90;;;;;;;;;;4948243;28;20732;-72
2022/03/03 06:54:43;;;;;;;91.87;40.83;;;;;;;;;;4953621;28;20233;-72
2022/03/03 06:57:08;;;;;;;376.20;57.20;;;;;;;;;;4938578;28;20223;-71
2022/03/03 06:59:34;;;;;;;141.23;41.47;;;;;;;;;;4950768;28;20234;-72
2022/03/03 07:02:02;;;;;;;118.70;40.60;;;;;;;;;;4923762;28;20716;-72
2022/03/03 07:04:29;;;;;;;130.40;40.27;;;;;;;;;;4939700;28;20697;-72
2022/03/03 07:06:57;;;;;;;333.50;47.93;;;;;;;;;;4925091;28;20228;-73
2022/03/03 07:09:25;;;;;;;202.20;40.07;;;;;;;;;;4912048;28;20234;-73
2022/03/03 07:11:53;;;;;;;153.90;40.20;;;;;;;;;;4977946;28;20226;-72
2022/03/03 07:14:18;;;;;;;143.47;37.80;;;;;;;;;;4939430;28;20296;-72
2022/03/03 07:16:58;;;;;;;85.83;36.73;;;;;;;;;;4973400;28;20268;-71
2022/03/03 07:19:26;;;;;;;106.33;37.10;;;;;;;;;;4939112;28;20713;-72
2022/03/03 07:22:10;;;;;;;199.70;41.57;;;;;;;;;;4951875;28;20253;-73
2022/03/03 07:24:45;;;;;;;112.57;37.03;;;;;;;;;;4964300;28;20244;-74
2022/03/03 07:27:23;;;;;;;94.60;33.03;;;;;;;;;;4957366;28;20209;-74
2022/03/03 07:29:56;;;;;;;75.57;33.67;;;;;;;;;;4948383;28;20229;-72
2022/03/03 07:32:37;;;;;;;71.17;37.83;;;;;;;;;;4932503;28;20224;-73
2022/03/03 07:35:09;;;;;;;69.43;38.97;;;;;;;;;;4937693;28;20226;-73
2022/03/03 07:37:40;;;;;;;62.77;33.63;;;;;;;;;;4940471;28;20256;-73
2022/03/03 07:40:07;;;;;;;66.90;35.83;;;;;;;;;;4941274;28;20235;-73
2022/03/03 07:42:33;;;;;;;64.43;35.97;;;;;;;;;;4921948;28;20338;-73
2022/03/03 07:44:59;;;;;;;59.20;34.53;;;;;;;;;;4939930;28;20657;-77
2022/03/03 07:47:26;;;;;;;79.80;49.33;;;;;;;;;;4938383;28;20444;-76
2022/03/03 07:49:52;;;;;;;66.37;39.40;;;;;;;;;;4931963;28;20229;-74
2022/03/03 07:52:20;;;;;;;74.00;39.37;;;;;;;;;;4922995;28;20222;-73
2022/03/03 07:54:45;;;;;;;63.77;37.23;;;;;;;;;;4938779;28;20222;-73
2022/03/03 07:57:14;;;;;;;59.67;35.50;;;;;;;;;;4931988;28;20230;-74
2022/03/03 07:59:39;;;;;;;55.57;34.80;;;;;;;;;;4923963;28;20257;-73
2022/03/03 08:02:07;;;;;;;54.77;35.70;;;;;;;;;;4936562;28;20657;-73
2022/03/03 08:04:33;;;;;;;54.10;34.57;;;;;;;;;;4946680;28;20304;-73
2022/03/03 08:07:06;;;;;;;52.37;33.00;;;;;;;;;;4950122;28;20703;-75
2022/03/03 08:09:34;;;;;;;50.57;32.90;;;;;;;;;;4949411;28;20234;-71
2022/03/03 08:12:07;;;;;;;54.30;32.43;;;;;;;;;;4948926;28;20225;-71
2022/03/03 08:14:35;;;;;;;47.80;32.33;;;;;;;;;;4935573;28;20229;-71
2022/03/03 08:17:03;;;;;;;54.10;33.60;;;;;;;;;;4939606;28;20210;-71
2022/03/03 08:19:32;;;;;;;54.60;34.07;;;;;;;;;;4943066;28;20233;-72
2022/03/03 08:22:00;;;;;;;51.20;32.53;;;;;;;;;;4925979;28;20219;-71
2022/03/03 08:24:26;;;;;;;50.73;31.27;;;;;;;;;;4940238;28;20732;-71
2022/03/03 08:26:56;;;;;;;53.93;33.30;;;;;;;;;;4939913;28;20276;-72
2022/03/03 08:29:22;;;;;;;52.73;33.70;;;;;;;;;;4969535;28;20210;-73
2022/03/03 08:31:52;;;;;;;53.50;33.37;;;;;;;;;;4939138;28;20652;-73
2022/03/03 08:34:45;;;;;;;52.33;33.70;;;;;;;;;;4959301;28;20257;-72
2022/03/03 08:37:20;;;;;;;52.43;33.07;;;;;;;;;;4951207;28;20228;-70
2022/03/03 08:39:48;;;;;;;52.60;32.50;;;;;;;;;;4941676;28;20316;-72
2022/03/03 08:42:14;;;;;;;54.37;33.47;;;;;;;;;;4933211;28;20233;-72
2022/03/03 08:44:44;;;;;;;50.27;33.27;;;;;;;;;;4970317;28;20229;-72
2022/03/03 08:47:15;;;;;;;51.80;32.63;;;;;;;;;;4958099;28;20269;-73
2022/03/03 08:49:43;;;;;;;51.53;32.53;;;;;;;;;;4948449;28;20222;-72
2022/03/03 08:52:11;;;;;;;48.60;32.10;;;;;;;;;;4959078;28;20230;-72
2022/03/03 08:54:39;;;;;;;53.90;33.07;;;;;;;;;;4944691;28;20229;-73
2022/03/03 08:57:04;;;;;;;51.40;33.43;;;;;;;;;;4957679;28;20736;-72
2022/03/03 08:59:30;;;;;;;49.43;30.67;;;;;;;;;;4949198;28;20234;-72
2022/03/03 09:01:56;;;;;;;46.73;31.03;;;;;;;;;;4959361;28;20240;-73
2022/03/03 09:04:22;;;;;;;46.97;31.17;;;;;;;;;;4982185;28;20253;-71
2022/03/03 09:06:50;;;;;;;47.83;31.33;;;;;;;;;;4975105;28;20242;-72
2022/03/03 09:09:16;;;;;;;48.50;31.10;;;;;;;;;;4959718;28;20221;-72
2022/03/03 09:11:41;;;;;;;46.80;30.10;;;;;;;;;;4973777;28;20697;-73
2022/03/03 09:14:11;;;;;;;45.80;30.27;;;;;;;;;;4957303;28;20309;-72
2022/03/03 09:16:38;;;;;;;44.80;29.43;;;;;;;;;;4958282;28;20236;-72
2022/03/03 09:19:04;;;;;;;45.73;30.37;;;;;;;;;;4974315;28;20256;-71
2022/03/03 09:21:29;;;;;;;42.47;30.30;;;;;;;;;;4952733;28;20309;-71
2022/03/03 09:23:57;;;;;;;42.17;30.17;;;;;;;;;;4956344;28;20214;-71
2022/03/03 09:26:28;;;;;;;43.70;30.90;;;;;;;;;;4968398;28;20218;-72
2022/03/03 09:28:54;;;;;;;43.77;29.30;;;;;;;;;;4974861;28;20218;-72
2022/03/03 09:31:22;;;;;;;39.33;30.07;;;;;;;;;;4974059;28;20304;-71
2022/03/03 09:33:47;;;;;;;38.77;28.47;;;;;;;;;;4938011;28;20301;-71
2022/03/03 09:36:13;;;;;;;37.53;28.43;;;;;;;;;;4962292;28;20218;-71
2022/03/03 09:38:41;;;;;;;39.63;28.03;;;;;;;;;;4973393;28;20689;-72
2022/03/03 09:41:06;;;;;;;38.63;28.73;;;;;;;;;;4940648;28;20241;-71
2022/03/03 09:43:35;;;;;;;37.83;27.33;;;;;;;;;;4957891;28;20308;-71
2022/03/03 09:46:00;;;;;;;39.20;27.03;;;;;;;;;;4945703;28;20214;-71
2022/03/03 09:48:26;;;;;;;41.87;26.57;;;;;;;;;;4940390;28;20225;-70
2022/03/03 09:50:56;;;;;;;36.87;25.27;;;;;;;;;;4938812;28;20239;-72
2022/03/03 09:53:22;;;;;;;33.87;25.10;;;;;;;;;;4939414;28;20588;-71
2022/03/03 09:55:55;;;;;;;34.37;24.07;;;;;;;;;;4920527;28;20226;-71
2022/03/03 09:58:20;;;;;;;30.03;23.00;;;;;;;;;;4951586;28;20291;-72
2022/03/03 10:00:46;;;;;;;29.47;22.07;;;;;;;;;;4956207;28;20229;-70
2022/03/03 10:03:16;;;;;;;28.80;22.33;;;;;;;;;;4934651;28;20229;-71
2022/03/03 10:05:49;;;;;;;29.53;21.40;;;;;;;;;;4938280;28;20218;-71
2022/03/03 10:08:15;;;;;;;25.50;18.57;;;;;;;;;;4949662;28;20210;-71
2022/03/03 10:10:42;;;;;;;23.47;17.80;;;;;;;;;;4940383;28;20237;-71
2022/03/03 10:13:09;;;;;;;22.63;15.60;;;;;;;;;;4939584;28;21229;-70
2022/03/03 10:15:37;;;;;;;26.10;19.00;;;;;;;;;;4933249;28;20226;-73
2022/03/03 10:18:12;;;;;;;27.33;18.83;;;;;;;;;;4941004;28;20222;-72
2022/03/03 10:20:54;;;;;;;23.50;16.93;;;;;;;;;;4919132;28;20285;-71
2022/03/03 10:23:35;;;;;;;22.03;16.83;;;;;;;;;;4941143;28;21013;-71
2022/03/03 10:26:04;;;;;;;24.73;16.20;;;;;;;;;;4946320;28;20230;-71
2022/03/03 10:28:31;;;;;;;26.07;17.00;;;;;;;;;;4940062;28;20335;-72
2022/03/03 10:31:08;;;;;;;21.70;16.17;;;;;;;;;;4940058;28;20583;-71
2022/03/03 10:33:43;;;;;;;23.40;17.10;;;;;;;;;;4942148;28;20226;-71
2022/03/03 10:36:09;;;;;;;21.30;15.33;;;;;;;;;;4955806;28;20870;-71
2022/03/03 10:39:06;;;;;;;22.00;16.20;;;;;;;;;;4962068;28;20237;-71
2022/03/03 10:41:31;;;;;;;19.53;14.57;;;;;;;;;;4954100;28;20226;-72
2022/03/03 10:43:57;;;;;;;17.73;13.07;;;;;;;;;;4973539;28;20714;-72
2022/03/03 10:46:28;;;;;;;18.63;14.40;;;;;;;;;;4941331;28;20222;-70
2022/03/03 10:48:56;;;;;;;20.97;13.53;;;;;;;;;;4932895;28;20218;-72
2022/03/03 10:51:24;;;;;;;18.67;13.50;;;;;;;;;;4972716;28;20222;-71
2022/03/03 10:53:56;;;;;;;17.37;13.20;;;;;;;;;;4945018;28;20265;-72
2022/03/03 10:56:24;;;;;;;18.87;14.60;;;;;;;;;;4946484;28;21760;-72
2022/03/03 10:59:01;;;;;;;16.20;13.03;;;;;;;;;;4941491;28;20235;-72
2022/03/03 11:01:29;;;;;;;16.77;12.43;;;;;;;;;;4944459;28;20241;-70
2022/03/03 11:03:55;;;;;;;16.57;12.50;;;;;;;;;;4939904;28;20249;-71
2022/03/03 11:06:23;;;;;;;16.63;13.00;;;;;;;;;;4928398;28;20294;-72
2022/03/03 11:08:52;;;;;;;16.20;12.37;;;;;;;;;;4948336;28;20611;-72
2022/03/03 11:11:18;;;;;;;16.57;11.90;;;;;;;;;;4944078;28;20224;-71
2022/03/03 11:13:45;;;;;;;17.67;13.93;;;;;;;;;;4953389;28;20229;-72
2022/03/03 11:16:13;;;;;;;17.53;14.23;;;;;;;;;;4947864;28;20221;-71
2022/03/03 11:18:39;;;;;;;20.93;14.17;;;;;;;;;;4974227;28;20225;-71
2022/03/03 11:21:04;;;;;;;16.70;13.67;;;;;;;;;;4951260;28;20226;-70
2022/03/03 11:23:43;;;;;;;19.87;13.77;;;;;;;;;;4938964;28;20288;-71
2022/03/03 11:26:18;;;;;;;17.57;13.80;;;;;;;;;;4920867;28;20234;-71
2022/03/03 11:28:45;;;;;;;16.20;13.00;;;;;;;;;;4940022;28;20240;-71
2022/03/03 11:31:32;;;;;;;16.27;12.97;;;;;;;;;;4959476;28;20666;-72
2022/03/03 11:34:23;;;;;;;15.43;12.27;;;;;;;;;;4929766;28;20729;-71
2022/03/03 11:36:50;;;;;;;15.80;12.00;;;;;;;;;;4953529;28;20229;-74
2022/03/03 11:39:34;;;;;;;15.97;12.77;;;;;;;;;;4944554;28;20247;-72
2022/03/03 11:42:20;;;;;;;15.80;12.37;;;;;;;;;;4967390;28;20254;-73
2022/03/03 11:44:46;;;;;;;15.83;12.53;;;;;;;;;;4952115;28;20272;-71
2022/03/03 11:47:22;;;;;;;15.40;12.10;;;;;;;;;;4936298;28;20218;-72
2022/03/03 11:50:13;;;;;;;15.17;12.37;;;;;;;;;;4950327;28;20336;-72
2022/03/03 11:52:42;;;;;;;14.13;11.67;;;;;;;;;;4939973;28;20237;-70
2022/03/03 11:55:27;;;;;;;17.67;12.93;;;;;;;;;;4945042;28;20218;-72
2022/03/03 11:58:00;;;;;;;17.17;12.80;;;;;;;;;;4931892;28;20584;-72
2022/03/03 12:00:28;;;;;;;16.60;13.13;;;;;;;;;;4936820;28;20236;-72
2022/03/03 12:03:10;;;;;;;14.07;12.33;;;;;;;;;;4923122;28;20253;-73
2022/03/03 12:05:39;;;;;;;16.23;12.50;;;;;;;;;;4930840;28;20238;-73
2022/03/03 12:08:28;;;;;;;15.73;12.50;;;;;;;;;;4928796;28;20762;-73
2022/03/03 12:11:15;;;;;;;15.97;11.97;;;;;;;;;;4938954;28;20257;-72
2022/03/03 12:13:45;;;;;;;16.73;11.97;;;;;;;;;;4928145;28;20230;-72
2022/03/03 12:16:34;;;;;;;16.87;11.93;;;;;;;;;;4952137;28;20657;-72
2022/03/03 12:19:00;;;;;;;15.33;11.83;;;;;;;;;;4936855;28;20231;-71
2022/03/03 12:21:40;;;;;;;15.00;11.93;;;;;;;;;;4981052;28;20905;-72
2022/03/03 12:24:14;;;;;;;17.40;12.20;;;;;;;;;;4941486;28;20238;-73
2022/03/03 12:26:55;;;;;;;13.97;11.43;;;;;;;;;;4965694;28;20239;-72
2022/03/03 12:29:37;;;;;;;13.93;10.37;;;;;;;;;;4975897;28;20221;-72
2022/03/03 12:32:29;;;;;;;12.13;9.43;;;;;;;;;;4951511;28;20643;-75
2022/03/03 12:35:03;;;;;;;12.80;9.27;;;;;;;;;;4974667;28;20229;-72
2022/03/03 12:37:29;;;;;;;11.90;9.07;;;;;;;;;;4958772;28;20225;-71
2022/03/03 12:40:02;;;;;;;11.80;9.43;;;;;;;;;;4955110;28;20234;-73
2022/03/03 12:42:30;;;;;;;10.00;8.03;;;;;;;;;;4934549;28;20705;-73
2022/03/03 12:45:03;;;;;;;12.80;8.37;;;;;;;;;;4956917;28;20732;-72
2022/03/03 12:47:40;;;;;;;10.10;8.73;;;;;;;;;;4940958;28;20702;-71
2022/03/03 12:50:22;;;;;;;9.10;8.20;;;;;;;;;;4940768;28;20258;-72
2022/03/03 12:52:59;;;;;;;13.27;9.47;;;;;;;;;;4942161;28;20228;-71
2022/03/03 12:55:32;;;;;;;10.83;8.80;;;;;;;;;;4974027;28;20229;-72
2022/03/03 12:57:57;;;;;;;11.33;8.40;;;;;;;;;;4961064;28;20226;-72
2022/03/03 13:00:25;;;;;;;11.40;8.33;;;;;;;;;;4955623;28;20237;-72
2022/03/03 13:03:00;;;;;;;13.23;9.03;;;;;;;;;;4943273;28;20238;-72
2022/03/03 13:05:34;;;;;;;11.60;8.90;;;;;;;;;;4956280;28;20220;-71
2022/03/03 13:08:03;;;;;;;11.80;8.67;;;;;;;;;;4967303;28;20225;-72
2022/03/03 13:10:31;;;;;;;13.30;9.23;;;;;;;;;;4944261;28;20226;-71
2022/03/03 13:12:57;;;;;;;10.27;8.40;;;;;;;;;;4934738;28;20716;-71
2022/03/03 13:15:29;;;;;;;12.00;8.57;;;;;;;;;;4958854;28;20214;-71
2022/03/03 13:18:02;;;;;;;11.93;8.70;;;;;;;;;;4941538;28;20229;-73
2022/03/03 13:20:39;;;;;;;10.17;8.40;;;;;;;;;;4926389;28;20252;-74
2022/03/03 13:23:13;;;;;;;10.77;8.27;;;;;;;;;;4957222;28;20217;-70
2022/03/03 13:25:39;;;;;;;10.83;8.80;;;;;;;;;;4946164;28;20305;-71
2022/03/03 13:28:05;;;;;;;10.57;8.50;;;;;;;;;;4923687;28;20219;-72
2022/03/03 13:30:31;;;;;;;11.47;8.53;;;;;;;;;;4967118;28;20222;-72
2022/03/03 13:32:59;;;;;;;12.17;8.87;;;;;;;;;;4935975;28;20300;-72
2022/03/03 13:35:26;;;;;;;11.60;8.63;;;;;;;;;;4949219;28;20711;-71
2022/03/03 13:37:52;;;;;;;10.80;8.17;;;;;;;;;;4979083;28;20305;-73
2022/03/03 13:40:18;;;;;;;14.87;10.13;;;;;;;;;;4970263;28;20226;-71
2022/03/03 13:42:45;;;;;;;12.83;8.40;;;;;;;;;;4954207;28;20321;-72
2022/03/03 13:45:11;;;;;;;12.30;8.13;;;;;;;;;;4940374;28;20301;-73
2022/03/03 13:47:41;;;;;;;11.47;8.77;;;;;;;;;;4938424;28;20226;-71
2022/03/03 13:50:10;;;;;;;11.07;7.90;;;;;;;;;;4939957;28;20379;-71
2022/03/03 13:52:36;;;;;;;9.90;7.43;;;;;;;;;;4962577;28;20244;-73
2022/03/03 13:55:11;;;;;;;11.23;8.10;;;;;;;;;;4922088;28;20230;-73
2022/03/03 13:57:42;;;;;;;9.87;7.53;;;;;;;;;;4984166;28;20284;-72
2022/03/03 14:00:25;;;;;;;8.13;6.53;;;;;;;;;;4942032;28;20234;-73
2022/03/03 14:02:51;;;;;;;8.50;6.93;;;;;;;;;;4954859;28;20629;-72
2022/03/03 14:05:53;;;;;;;9.27;6.93;;;;;;;;;;4973623;28;20218;-72
2022/03/03 14:08:19;;;;;;;9.37;7.00;;;;;;;;;;4956870;28;20268;-73
2022/03/03 14:10:58;;;;;;;10.60;7.30;;;;;;;;;;4986090;28;20245;-71
2022/03/03 14:13:26;;;;;;;9.93;7.50;;;;;;;;;;4987976;28;20226;-71
2022/03/03 14:15:52;;;;;;;8.77;7.17;;;;;;;;;;4942930;28;20291;-72
2022/03/03 14:18:24;;;;;;;8.00;6.73;;;;;;;;;;4959927;28;20233;-72
2022/03/03 14:20:54;;;;;;;8.70;7.17;;;;;;;;;;4986913;28;20246;-73
2022/03/03 14:23:22;;;;;;;10.90;7.50;;;;;;;;;;4967785;28;20218;-73
2022/03/03 14:25:48;;;;;;;8.47;6.50;;;;;;;;;;4942904;28;20297;-72
2022/03/03 14:28:17;;;;;;;8.67;6.40;;;;;;;;;;4947195;28;20221;-72
2022/03/03 14:30:45;;;;;;;9.83;6.63;;;;;;;;;;4955787;28;20226;-73